sensor_id;sensor_type;location;lat;lon;timestamp;pressure;altitude;pressure_sealevel;temperature;humidity
6032;BME280;3044;43.232;27.972;2023-07-20T00:01:47;45060.50;;;-143.84;87.53
6032;BME280;3044;43.232;27.972;2023-07-20T00:04:14;45041.44;;;-143.84;86.91
6032;BME280;3044;43.232;27.972;2023-07-20T00:06:41;45077.63;;;-143.84;85.71
6032;BME280;3044;43.232;27.972;2023-07-20T00:09:08;45073.81;;;-143.84;85.29
6032;BME280;3044;43.232;27.972;2023-07-20T00:11:37;45041.44;;;-143.84;85.17
6032;BME280;3044;43.232;27.972;2023-07-20T00:14:04;45026.22;;;-143.84;83.71
6032;BME280;3044;43.232;27.972;2023-07-20T00:16:33;45058.59;;;-143.84;83.58
6032;BME280;3044;43.232;27.972;2023-07-20T00:19:00;45094.78;;;-143.84;83.15
6032;BME280;3044;43.232;27.972;2023-07-20T00:21:27;45056.69;;;-143.84;82.95
6032;BME280;3044;43.232;27.972;2023-07-20T00:23:54;45050.97;;;-143.84;82.84
6032;BME280;3044;43.232;27.972;2023-07-20T00:26:21;45062.41;;;-143.84;82.62
6032;BME280;3044;43.232;27.972;2023-07-20T00:28:50;45062.41;;;-143.84;82.63
6032;BME280;3044;43.232;27.972;2023-07-20T00:31:17;45056.69;;;-143.84;82.67
6032;BME280;3044;43.232;27.972;2023-07-20T00:33:46;45043.34;;;-143.84;82.59
6032;BME280;3044;43.232;27.972;2023-07-20T00:36:13;45066.22;;;-143.84;83.11
6032;BME280;3044;43.232;27.972;2023-07-20T00:38:40;45062.41;;;-143.84;83.35
6032;BME280;3044;43.232;27.972;2023-07-20T00:41:07;45041.44;;;-143.84;83.97
6032;BME280;3044;43.232;27.972;2023-07-20T00:43:34;45045.25;;;-143.84;84.71
6032;BME280;3044;43.232;27.972;2023-07-20T00:46:01;45050.97;;;-143.84;83.40
6032;BME280;3044;43.232;27.972;2023-07-20T00:48:29;45045.25;;;-143.84;81.42
6032;BME280;3044;43.232;27.972;2023-07-20T00:50:58;45096.66;;;-143.84;80.17
6032;BME280;3044;43.232;27.972;2023-07-20T00:53:27;45060.50;;;-143.84;79.48
6032;BME280;3044;43.232;27.972;2023-07-20T00:55:54;45037.66;;;-143.84;77.26
6032;BME280;3044;43.232;27.972;2023-07-20T00:58:22;45043.34;;;-143.84;75.23
6032;BME280;3044;43.232;27.972;2023-07-20T01:00:50;45083.34;;;-143.84;72.56
6032;BME280;3044;43.232;27.972;2023-07-20T01:03:17;45064.31;;;-143.84;71.33
6032;BME280;3044;43.232;27.972;2023-07-20T01:05:51;45073.81;;;-143.84;69.69
6032;BME280;3044;43.232;27.972;2023-07-20T01:08:27;45062.41;;;-143.84;69.00
6032;BME280;3044;43.232;27.972;2023-07-20T01:11:00;45075.72;;;-143.84;68.84
6032;BME280;3044;43.232;27.972;2023-07-20T01:13:33;45056.69;;;-143.84;68.36
6032;BME280;3044;43.232;27.972;2023-07-20T01:16:01;45079.53;;;-143.84;67.80
6032;BME280;3044;43.232;27.972;2023-07-20T01:18:28;45039.53;;;-143.84;68.43
6032;BME280;3044;43.232;27.972;2023-07-20T01:21:04;45041.44;;;-143.84;67.55
6032;BME280;3044;43.232;27.972;2023-07-20T01:24:34;45085.25;;;-143.84;68.30
6032;BME280;3044;43.232;27.972;2023-07-20T01:30:13;45037.66;;;-143.84;68.46
6032;BME280;3044;43.232;27.972;2023-07-20T01:32:44;45054.78;;;-143.84;68.15
6032;BME280;3044;43.232;27.972;2023-07-20T01:35:14;45062.41;;;-143.84;68.23
6032;BME280;3044;43.232;27.972;2023-07-20T01:37:44;45068.13;;;-143.84;67.75
6032;BME280;3044;43.232;27.972;2023-07-20T01:40:13;45031.94;;;-143.84;67.07
6032;BME280;3044;43.232;27.972;2023-07-20T01:42:44;45064.31;;;-143.84;67.84
6032;BME280;3044;43.232;27.972;2023-07-20T01:45:12;45049.06;;;-143.84;68.01
6032;BME280;3044;43.232;27.972;2023-07-20T01:47:39;45039.53;;;-143.84;67.38
6032;BME280;3044;43.232;27.972;2023-07-20T01:50:08;45024.31;;;-143.84;68.29
6032;BME280;3044;43.232;27.972;2023-07-20T01:52:35;45070.00;;;-143.84;67.97
6032;BME280;3044;43.232;27.972;2023-07-20T01:55:03;45075.72;;;-143.84;67.84
6032;BME280;3044;43.232;27.972;2023-07-20T01:57:31;45075.72;;;-143.84;66.78
6032;BME280;3044;43.232;27.972;2023-07-20T01:59:58;45024.31;;;-143.84;67.39
6032;BME280;3044;43.232;27.972;2023-07-20T02:02:27;45058.59;;;-143.84;67.46
6032;BME280;3044;43.232;27.972;2023-07-20T02:04:54;45026.22;;;-143.84;68.45
6032;BME280;3044;43.232;27.972;2023-07-20T02:07:23;45104.28;;;-143.84;69.01
6032;BME280;3044;43.232;27.972;2023-07-20T02:09:50;45054.78;;;-143.84;69.53
6032;BME280;3044;43.232;27.972;2023-07-20T02:12:17;45041.44;;;-143.84;69.54
6032;BME280;3044;43.232;27.972;2023-07-20T02:14:44;45041.44;;;-143.84;69.61
6032;BME280;3044;43.232;27.972;2023-07-20T02:17:11;45054.78;;;-143.84;69.79
6032;BME280;3044;43.232;27.972;2023-07-20T02:19:40;45043.34;;;-143.84;70.74
6032;BME280;3044;43.232;27.972;2023-07-20T02:22:07;45066.22;;;-143.84;71.25
6032;BME280;3044;43.232;27.972;2023-07-20T02:24:36;45075.72;;;-143.84;71.40
6032;BME280;3044;43.232;27.972;2023-07-20T02:27:03;45052.88;;;-143.84;72.19
6032;BME280;3044;43.232;27.972;2023-07-20T02:29:30;45075.72;;;-143.84;72.46
6032;BME280;3044;43.232;27.972;2023-07-20T02:31:57;45047.16;;;-143.84;72.48
6032;BME280;3044;43.232;27.972;2023-07-20T02:34:25;45077.63;;;-143.84;72.54
6032;BME280;3044;43.232;27.972;2023-07-20T02:36:52;45070.00;;;-143.84;71.34
6032;BME280;3044;43.232;27.972;2023-07-20T02:39:21;45052.88;;;-143.84;70.57
6032;BME280;3044;43.232;27.972;2023-07-20T02:41:50;45054.78;;;-143.84;70.18
6032;BME280;3044;43.232;27.972;2023-07-20T02:44:17;45071.91;;;-143.84;69.81
6032;BME280;3044;43.232;27.972;2023-07-20T02:46:44;45045.25;;;-143.84;68.95
6032;BME280;3044;43.232;27.972;2023-07-20T02:49:11;45049.06;;;-143.84;68.24
6032;BME280;3044;43.232;27.972;2023-07-20T02:51:38;45056.69;;;-143.84;68.17
6032;BME280;3044;43.232;27.972;2023-07-20T02:54:05;45049.06;;;-143.84;67.17
6032;BME280;3044;43.232;27.972;2023-07-20T02:56:32;45052.88;;;-143.84;67.13
6032;BME280;3044;43.232;27.972;2023-07-20T02:59:02;45028.13;;;-143.84;67.27
6032;BME280;3044;43.232;27.972;2023-07-20T03:01:29;45066.22;;;-143.84;67.55
6032;BME280;3044;43.232;27.972;2023-07-20T03:03:56;45066.22;;;-143.84;68.66
6032;BME280;3044;43.232;27.972;2023-07-20T03:06:23;45066.22;;;-143.84;68.44
6032;BME280;3044;43.232;27.972;2023-07-20T03:08:51;45064.31;;;-143.84;68.24
6032;BME280;3044;43.232;27.972;2023-07-20T03:11:19;45049.06;;;-143.84;67.84
6032;BME280;3044;43.232;27.972;2023-07-20T03:13:47;45070.00;;;-143.84;67.14
6032;BME280;3044;43.232;27.972;2023-07-20T03:16:18;45045.25;;;-143.84;67.03
6032;BME280;3044;43.232;27.972;2023-07-20T03:18:46;45045.25;;;-143.84;66.65
6032;BME280;3044;43.232;27.972;2023-07-20T03:21:13;45062.41;;;-143.84;66.44
6032;BME280;3044;43.232;27.972;2023-07-20T03:23:41;45030.03;;;-143.84;66.47
6032;BME280;3044;43.232;27.972;2023-07-20T03:26:08;45020.50;;;-143.84;66.10
6032;BME280;3044;43.232;27.972;2023-07-20T03:28:36;45045.25;;;-143.84;65.81
6032;BME280;3044;43.232;27.972;2023-07-20T03:31:03;45050.97;;;-143.84;65.74
6032;BME280;3044;43.232;27.972;2023-07-20T03:33:32;45045.25;;;-143.84;65.46
6032;BME280;3044;43.232;27.972;2023-07-20T03:35:59;45014.78;;;-143.84;64.47
6032;BME280;3044;43.232;27.972;2023-07-20T03:38:27;45030.03;;;-143.84;62.40
6032;BME280;3044;43.232;27.972;2023-07-20T03:40:55;45026.22;;;-143.84;60.21
6032;BME280;3044;43.232;27.972;2023-07-20T03:43:23;45014.78;;;-143.84;56.97
6032;BME280;3044;43.232;27.972;2023-07-20T03:45:50;45035.75;;;-143.84;54.87
6032;BME280;3044;43.232;27.972;2023-07-20T03:48:19;44991.94;;;-143.84;53.81
6032;BME280;3044;43.232;27.972;2023-07-20T03:50:50;45022.41;;;-143.84;52.66
6032;BME280;3044;43.232;27.972;2023-07-20T03:53:17;45003.38;;;-143.84;52.40
6032;BME280;3044;43.232;27.972;2023-07-20T03:55:44;44969.09;;;-143.84;52.41
6032;BME280;3044;43.232;27.972;2023-07-20T03:58:12;44997.66;;;-143.84;52.01
6032;BME280;3044;43.232;27.972;2023-07-20T04:00:39;44972.91;;;-143.84;49.07
6032;BME280;3044;43.232;27.972;2023-07-20T04:03:06;44990.03;;;-143.84;48.53
6032;BME280;3044;43.232;27.972;2023-07-20T04:05:33;44986.22;;;-143.84;49.50
6032;BME280;3044;43.232;27.972;2023-07-20T04:08:02;44953.88;;;-143.84;49.88
6032;BME280;3044;43.232;27.972;2023-07-20T04:10:29;44969.09;;;-143.84;50.50
6032;BME280;3044;43.232;27.972;2023-07-20T04:12:56;44963.38;;;-143.84;50.45
6032;BME280;3044;43.232;27.972;2023-07-20T04:15:23;44988.13;;;-143.84;50.48
6032;BME280;3044;43.232;27.972;2023-07-20T04:17:50;44955.75;;;-143.84;51.10
6032;BME280;3044;43.232;27.972;2023-07-20T04:20:17;44980.53;;;-143.84;51.13
6032;BME280;3044;43.232;27.972;2023-07-20T04:22:44;44978.63;;;-143.84;52.50
6032;BME280;3044;43.232;27.972;2023-07-20T04:25:13;45007.19;;;-143.84;53.25
6032;BME280;3044;43.232;27.972;2023-07-20T04:27:40;44991.94;;;-143.84;55.25
6032;BME280;3044;43.232;27.972;2023-07-20T04:30:08;45005.28;;;-143.84;56.98
6032;BME280;3044;43.232;27.972;2023-07-20T04:32:36;44997.66;;;-143.84;57.28
6032;BME280;3044;43.232;27.972;2023-07-20T04:35:06;45001.47;;;-143.84;58.70
6032;BME280;3044;43.232;27.972;2023-07-20T04:37:33;45003.38;;;-143.84;60.36
6032;BME280;3044;43.232;27.972;2023-07-20T04:40:00;45003.38;;;-143.84;60.07
6032;BME280;3044;43.232;27.972;2023-07-20T04:42:30;45020.50;;;-143.84;62.15
6032;BME280;3044;43.232;27.972;2023-07-20T04:44:57;45003.38;;;-143.84;61.82
6032;BME280;3044;43.232;27.972;2023-07-20T04:47:24;45005.28;;;-143.84;60.44
6032;BME280;3044;43.232;27.972;2023-07-20T04:49:52;45018.59;;;-143.84;60.33
6032;BME280;3044;43.232;27.972;2023-07-20T04:52:19;45016.69;;;-143.84;61.24
6032;BME280;3044;43.232;27.972;2023-07-20T04:54:46;45016.69;;;-143.84;61.49
6032;BME280;3044;43.232;27.972;2023-07-20T04:57:13;45012.88;;;-143.84;60.82
6032;BME280;3044;43.232;27.972;2023-07-20T04:59:41;45005.28;;;-143.84;58.62
6032;BME280;3044;43.232;27.972;2023-07-20T05:02:08;45007.19;;;-143.84;57.70
6032;BME280;3044;43.232;27.972;2023-07-20T05:04:36;45005.28;;;-143.84;57.10
6032;BME280;3044;43.232;27.972;2023-07-20T05:07:03;44988.13;;;-143.84;55.61
6032;BME280;3044;43.232;27.972;2023-07-20T05:09:30;44984.31;;;-143.84;52.30
6032;BME280;3044;43.232;27.972;2023-07-20T05:11:57;44988.13;;;-143.84;51.92
6032;BME280;3044;43.232;27.972;2023-07-20T05:14:24;44978.63;;;-143.84;51.19
6032;BME280;3044;43.232;27.972;2023-07-20T05:16:53;44971.00;;;-143.84;50.99
6032;BME280;3044;43.232;27.972;2023-07-20T05:19:20;44965.28;;;-143.84;48.66
6032;BME280;3044;43.232;27.972;2023-07-20T05:21:47;44940.53;;;-143.84;48.64
6032;BME280;3044;43.232;27.972;2023-07-20T05:24:14;44951.97;;;-143.84;47.60
6032;BME280;3044;43.232;27.972;2023-07-20T05:26:41;44995.75;;;-143.84;47.56
6032;BME280;3044;43.232;27.972;2023-07-20T05:29:08;44969.09;;;-143.84;47.79
6032;BME280;3044;43.232;27.972;2023-07-20T05:31:36;44959.56;;;-143.84;47.25
6032;BME280;3044;43.232;27.972;2023-07-20T05:34:04;44953.88;;;-143.84;46.61
6032;BME280;3044;43.232;27.972;2023-07-20T05:36:31;44999.56;;;-143.84;46.35
6032;BME280;3044;43.232;27.972;2023-07-20T05:38:58;44959.56;;;-143.84;46.24
6032;BME280;3044;43.232;27.972;2023-07-20T05:41:25;44931.00;;;-143.84;45.37
6032;BME280;3044;43.232;27.972;2023-07-20T05:43:53;44929.09;;;-143.84;45.52
6032;BME280;3044;43.232;27.972;2023-07-20T05:46:20;44972.91;;;-143.84;44.96
6032;BME280;3044;43.232;27.972;2023-07-20T05:48:47;44957.66;;;-143.84;44.53
6032;BME280;3044;43.232;27.972;2023-07-20T05:51:15;44925.31;;;-143.84;43.30
6032;BME280;3044;43.232;27.972;2023-07-20T05:53:43;44950.06;;;-143.84;43.44
6032;BME280;3044;43.232;27.972;2023-07-20T05:56:10;44944.34;;;-143.84;42.57
6032;BME280;3044;43.232;27.972;2023-07-20T05:58:37;44919.59;;;-143.84;43.28
6032;BME280;3044;43.232;27.972;2023-07-20T06:01:04;44950.06;;;-143.84;42.78
6032;BME280;3044;43.232;27.972;2023-07-20T06:03:32;44934.81;;;-143.84;42.76
6032;BME280;3044;43.232;27.972;2023-07-20T06:06:00;44931.00;;;-143.84;42.96
6032;BME280;3044;43.232;27.972;2023-07-20T06:08:29;44940.53;;;-143.84;43.01
6032;BME280;3044;43.232;27.972;2023-07-20T06:10:56;44911.97;;;-143.84;42.66
6032;BME280;3044;43.232;27.972;2023-07-20T06:13:24;44915.78;;;-143.84;42.99
6032;BME280;3044;43.232;27.972;2023-07-20T06:15:51;44906.25;;;-143.84;42.30
6032;BME280;3044;43.232;27.972;2023-07-20T06:18:18;44911.97;;;-143.84;42.19
6032;BME280;3044;43.232;27.972;2023-07-20T06:20:49;44913.88;;;-143.84;41.95
6032;BME280;3044;43.232;27.972;2023-07-20T06:23:17;44915.78;;;-143.84;42.22
6032;BME280;3044;43.232;27.972;2023-07-20T06:25:46;44919.59;;;-143.84;42.65
6032;BME280;3044;43.232;27.972;2023-07-20T06:28:13;44944.34;;;-143.84;42.66
6032;BME280;3044;43.232;27.972;2023-07-20T06:30:40;44942.44;;;-143.84;41.88
6032;BME280;3044;43.232;27.972;2023-07-20T06:33:08;44932.91;;;-143.84;42.71
6032;BME280;3044;43.232;27.972;2023-07-20T06:35:35;44921.50;;;-143.84;41.22
6032;BME280;3044;43.232;27.972;2023-07-20T06:38:02;44934.81;;;-143.84;41.35
6032;BME280;3044;43.232;27.972;2023-07-20T06:40:29;44963.38;;;-143.84;41.03
6032;BME280;3044;43.232;27.972;2023-07-20T06:42:58;44946.25;;;-143.84;41.43
6032;BME280;3044;43.232;27.972;2023-07-20T06:45:25;44955.75;;;-143.84;40.57
6032;BME280;3044;43.232;27.972;2023-07-20T06:47:52;44957.66;;;-143.84;40.74
6032;BME280;3044;43.232;27.972;2023-07-20T06:50:19;44953.88;;;-143.84;41.19
6032;BME280;3044;43.232;27.972;2023-07-20T06:52:47;44974.81;;;-143.84;40.65
6032;BME280;3044;43.232;27.972;2023-07-20T06:55:14;44974.81;;;-143.84;41.11
6032;BME280;3044;43.232;27.972;2023-07-20T06:57:41;44955.75;;;-143.84;41.48
6032;BME280;3044;43.232;27.972;2023-07-20T07:00:11;44976.72;;;-143.84;42.09
6032;BME280;3044;43.232;27.972;2023-07-20T07:02:39;44976.72;;;-143.84;41.71
6032;BME280;3044;43.232;27.972;2023-07-20T07:05:06;44967.19;;;-143.84;42.05
6032;BME280;3044;43.232;27.972;2023-07-20T07:07:34;44963.38;;;-143.84;42.13
6032;BME280;3044;43.232;27.972;2023-07-20T07:10:01;44959.56;;;-143.84;41.79
6032;BME280;3044;43.232;27.972;2023-07-20T07:12:30;44974.81;;;-143.84;42.34
6032;BME280;3044;43.232;27.972;2023-07-20T07:14:57;44953.88;;;-143.84;42.66
6032;BME280;3044;43.232;27.972;2023-07-20T07:17:27;44988.13;;;-143.84;43.90
6032;BME280;3044;43.232;27.972;2023-07-20T07:19:54;44974.81;;;-143.84;42.96
6032;BME280;3044;43.232;27.972;2023-07-20T07:22:22;44984.31;;;-143.84;42.50
6032;BME280;3044;43.232;27.972;2023-07-20T07:24:49;44957.66;;;-143.84;42.42
6032;BME280;3044;43.232;27.972;2023-07-20T07:27:16;44963.38;;;-143.84;42.01
6032;BME280;3044;43.232;27.972;2023-07-20T07:29:43;44969.09;;;-143.84;42.23
6032;BME280;3044;43.232;27.972;2023-07-20T07:32:11;44967.19;;;-143.84;43.44
6032;BME280;3044;43.232;27.972;2023-07-20T07:34:39;44980.53;;;-143.84;46.08
6032;BME280;3044;43.232;27.972;2023-07-20T07:37:06;44988.13;;;-143.84;46.78
6032;BME280;3044;43.232;27.972;2023-07-20T07:39:33;44967.19;;;-143.84;45.90
6032;BME280;3044;43.232;27.972;2023-07-20T07:42:01;44976.72;;;-143.84;45.33
6032;BME280;3044;43.232;27.972;2023-07-20T07:44:28;44957.66;;;-143.84;45.91
6032;BME280;3044;43.232;27.972;2023-07-20T07:46:55;44969.09;;;-143.84;46.24
6032;BME280;3044;43.232;27.972;2023-07-20T07:49:22;44993.84;;;-143.84;45.46
6032;BME280;3044;43.232;27.972;2023-07-20T07:51:51;44976.72;;;-143.84;45.70
6032;BME280;3044;43.232;27.972;2023-07-20T07:54:18;44984.31;;;-143.84;44.30
6032;BME280;3044;43.232;27.972;2023-07-20T07:56:45;44957.66;;;-143.84;44.55
6032;BME280;3044;43.232;27.972;2023-07-20T07:59:12;44980.53;;;-143.84;44.31
6032;BME280;3044;43.232;27.972;2023-07-20T08:01:39;44993.84;;;-143.84;44.16
6032;BME280;3044;43.232;27.972;2023-07-20T08:04:06;44967.19;;;-143.84;44.21
6032;BME280;3044;43.232;27.972;2023-07-20T08:06:34;45007.19;;;-143.84;43.70
6032;BME280;3044;43.232;27.972;2023-07-20T08:09:03;44965.28;;;-143.84;44.28
6032;BME280;3044;43.232;27.972;2023-07-20T08:11:30;44969.09;;;-143.84;44.06
6032;BME280;3044;43.232;27.972;2023-07-20T08:13:59;44982.41;;;-143.84;43.53
6032;BME280;3044;43.232;27.972;2023-07-20T08:16:26;44963.38;;;-143.84;43.55
6032;BME280;3044;43.232;27.972;2023-07-20T08:18:54;44990.03;;;-143.84;43.13
6032;BME280;3044;43.232;27.972;2023-07-20T08:21:21;44991.94;;;-143.84;43.61
6032;BME280;3044;43.232;27.972;2023-07-20T08:23:49;44980.53;;;-143.84;43.64
6032;BME280;3044;43.232;27.972;2023-07-20T08:26:18;44980.53;;;-143.84;43.98
6032;BME280;3044;43.232;27.972;2023-07-20T08:28:48;44963.38;;;-143.84;44.35
6032;BME280;3044;43.232;27.972;2023-07-20T08:31:15;44965.28;;;-143.84;44.82
6032;BME280;3044;43.232;27.972;2023-07-20T08:33:42;44995.75;;;-143.84;44.53
6032;BME280;3044;43.232;27.972;2023-07-20T08:36:09;44995.75;;;-143.84;43.98
6032;BME280;3044;43.232;27.972;2023-07-20T08:38:37;44974.81;;;-143.84;43.89
6032;BME280;3044;43.232;27.972;2023-07-20T08:41:04;44988.13;;;-143.84;43.55
6032;BME280;3044;43.232;27.972;2023-07-20T08:43:33;44972.91;;;-143.84;44.01
6032;BME280;3044;43.232;27.972;2023-07-20T08:46:00;44976.72;;;-143.84;43.69
6032;BME280;3044;43.232;27.972;2023-07-20T08:48:29;44971.00;;;-143.84;43.37
6032;BME280;3044;43.232;27.972;2023-07-20T08:50:58;44957.66;;;-143.84;44.41
6032;BME280;3044;43.232;27.972;2023-07-20T08:53:27;44950.06;;;-143.84;43.59
6032;BME280;3044;43.232;27.972;2023-07-20T08:55:55;44946.25;;;-143.84;43.25
6032;BME280;3044;43.232;27.972;2023-07-20T08:58:23;44972.91;;;-143.84;42.82
6032;BME280;3044;43.232;27.972;2023-07-20T09:00:55;44951.97;;;-143.84;42.31
6032;BME280;3044;43.232;27.972;2023-07-20T09:03:24;44925.31;;;-143.84;42.48
6032;BME280;3044;43.232;27.972;2023-07-20T09:05:52;44953.88;;;-143.84;41.40
6032;BME280;3044;43.232;27.972;2023-07-20T09:08:19;44969.09;;;-143.84;42.52
6032;BME280;3044;43.232;27.972;2023-07-20T09:10:46;44959.56;;;-143.84;41.76
6032;BME280;3044;43.232;27.972;2023-07-20T09:13:14;44950.06;;;-143.84;41.51
6032;BME280;3044;43.232;27.972;2023-07-20T09:15:46;44906.25;;;-143.84;42.25
6032;BME280;3044;43.232;27.972;2023-07-20T09:18:23;44881.50;;;-143.84;39.52
6032;BME280;3044;43.232;27.972;2023-07-20T09:24:13;44908.16;;;-143.84;39.43
6032;BME280;3044;43.232;27.972;2023-07-20T09:26:43;44908.16;;;-143.84;37.98
6032;BME280;3044;43.232;27.972;2023-07-20T09:29:11;44866.28;;;-143.84;38.04
6032;BME280;3044;43.232;27.972;2023-07-20T09:31:38;44862.47;;;-143.84;37.70
6032;BME280;3044;43.232;27.972;2023-07-20T09:34:06;44881.50;;;-143.84;37.87
6032;BME280;3044;43.232;27.972;2023-07-20T09:36:34;44866.28;;;-143.84;36.63
6032;BME280;3044;43.232;27.972;2023-07-20T09:39:03;44881.50;;;-143.84;36.50
6032;BME280;3044;43.232;27.972;2023-07-20T09:41:39;44849.13;;;-143.84;36.35
6032;BME280;3044;43.232;27.972;2023-07-20T09:44:08;44839.63;;;-143.84;36.67
6032;BME280;3044;43.232;27.972;2023-07-20T09:46:44;44837.72;;;-143.84;37.27
6032;BME280;3044;43.232;27.972;2023-07-20T09:49:14;44845.31;;;-143.84;36.10
6032;BME280;3044;43.232;27.972;2023-07-20T09:51:41;44849.13;;;-143.84;35.90
6032;BME280;3044;43.232;27.972;2023-07-20T09:54:10;44849.13;;;-143.84;35.96
6032;BME280;3044;43.232;27.972;2023-07-20T09:56:38;44877.69;;;-143.84;35.60
6032;BME280;3044;43.232;27.972;2023-07-20T09:59:06;44864.38;;;-143.84;36.04
6032;BME280;3044;43.232;27.972;2023-07-20T10:01:34;44873.88;;;-143.84;35.28
6032;BME280;3044;43.232;27.972;2023-07-20T10:04:03;44854.84;;;-143.84;35.11
6032;BME280;3044;43.232;27.972;2023-07-20T10:06:33;44851.03;;;-143.84;34.65
6032;BME280;3044;43.232;27.972;2023-07-20T10:09:02;44873.88;;;-143.84;34.80
6032;BME280;3044;43.232;27.972;2023-07-20T10:11:35;44873.88;;;-143.84;34.84
6032;BME280;3044;43.232;27.972;2023-07-20T10:14:03;44812.97;;;-143.84;34.83
6032;BME280;3044;43.232;27.972;2023-07-20T10:16:35;44845.31;;;-143.84;34.42
6032;BME280;3044;43.232;27.972;2023-07-20T10:19:05;44866.28;;;-143.84;35.02
6032;BME280;3044;43.232;27.972;2023-07-20T10:21:39;44839.63;;;-143.84;35.33
6032;BME280;3044;43.232;27.972;2023-07-20T10:24:07;44843.44;;;-143.84;36.11
6032;BME280;3044;43.232;27.972;2023-07-20T10:26:37;44849.13;;;-143.84;39.26
6032;BME280;3044;43.232;27.972;2023-07-20T10:29:04;44870.09;;;-143.84;40.23
6032;BME280;3044;43.232;27.972;2023-07-20T10:31:33;44885.31;;;-143.84;40.23
6032;BME280;3044;43.232;27.972;2023-07-20T10:34:01;44864.38;;;-143.84;41.17
6032;BME280;3044;43.232;27.972;2023-07-20T10:36:28;44877.69;;;-143.84;40.95
6032;BME280;3044;43.232;27.972;2023-07-20T10:38:57;44902.44;;;-143.84;41.03
6032;BME280;3044;43.232;27.972;2023-07-20T10:41:32;44858.66;;;-143.84;41.19
6032;BME280;3044;43.232;27.972;2023-07-20T10:44:01;44889.13;;;-143.84;41.04
6032;BME280;3044;43.232;27.972;2023-07-20T10:46:42;44919.59;;;-143.84;43.47
6032;BME280;3044;43.232;27.972;2023-07-20T10:49:11;44894.84;;;-143.84;43.70
6032;BME280;3044;43.232;27.972;2023-07-20T10:51:40;44908.16;;;-143.84;43.25
6032;BME280;3044;43.232;27.972;2023-07-20T10:54:46;44894.84;;;-143.84;43.43
6032;BME280;3044;43.232;27.972;2023-07-20T10:57:27;44923.41;;;-143.84;42.05
6032;BME280;3044;43.232;27.972;2023-07-20T11:00:08;44891.03;;;-143.84;43.27
6032;BME280;3044;43.232;27.972;2023-07-20T11:02:47;44881.50;;;-143.84;42.69
6032;BME280;3044;43.232;27.972;2023-07-20T11:05:45;44891.03;;;-143.84;42.42
6032;BME280;3044;43.232;27.972;2023-07-20T11:08:12;44891.03;;;-143.84;44.33
6032;BME280;3044;43.232;27.972;2023-07-20T11:11:25;44891.03;;;-143.84;41.94
6032;BME280;3044;43.232;27.972;2023-07-20T11:13:58;44919.59;;;-143.84;42.18
6032;BME280;3044;43.232;27.972;2023-07-20T11:16:34;44921.50;;;-143.84;45.24
6032;BME280;3044;43.232;27.972;2023-07-20T11:19:02;44929.09;;;-143.84;44.71
6032;BME280;3044;43.232;27.972;2023-07-20T11:21:35;44919.59;;;-143.84;45.37
6032;BME280;3044;43.232;27.972;2023-07-20T11:24:04;44921.50;;;-143.84;43.99
6032;BME280;3044;43.232;27.972;2023-07-20T11:26:41;44908.16;;;-143.84;46.41
6032;BME280;3044;43.232;27.972;2023-07-20T11:29:08;44919.59;;;-143.84;43.33
6032;BME280;3044;43.232;27.972;2023-07-20T11:31:37;44934.81;;;-143.84;46.37
6032;BME280;3044;43.232;27.972;2023-07-20T11:34:04;44929.09;;;-143.84;43.78
6032;BME280;3044;43.232;27.972;2023-07-20T11:36:32;44919.59;;;-143.84;45.24
6032;BME280;3044;43.232;27.972;2023-07-20T11:39:00;44936.72;;;-143.84;44.60
6032;BME280;3044;43.232;27.972;2023-07-20T11:41:30;44951.97;;;-143.84;47.22
6032;BME280;3044;43.232;27.972;2023-07-20T11:43:59;44925.31;;;-143.84;46.00
6032;BME280;3044;43.232;27.972;2023-07-20T11:46:28;44957.66;;;-143.84;47.52
6032;BME280;3044;43.232;27.972;2023-07-20T11:48:57;44953.88;;;-143.84;49.46
6032;BME280;3044;43.232;27.972;2023-07-20T11:51:26;44997.66;;;-143.84;47.12
6032;BME280;3044;43.232;27.972;2023-07-20T11:53:54;44950.06;;;-143.84;46.69
6032;BME280;3044;43.232;27.972;2023-07-20T11:56:23;44925.31;;;-143.84;44.65
6032;BME280;3044;43.232;27.972;2023-07-20T11:58:50;44927.19;;;-143.84;44.81
6032;BME280;3044;43.232;27.972;2023-07-20T12:01:19;44925.31;;;-143.84;44.93
6032;BME280;3044;43.232;27.972;2023-07-20T12:03:47;44919.59;;;-143.84;44.12
6032;BME280;3044;43.232;27.972;2023-07-20T12:06:15;44915.78;;;-143.84;43.63
6032;BME280;3044;43.232;27.972;2023-07-20T12:08:43;44919.59;;;-143.84;44.83
6032;BME280;3044;43.232;27.972;2023-07-20T12:11:11;44927.19;;;-143.84;45.26
6032;BME280;3044;43.232;27.972;2023-07-20T12:13:39;44927.19;;;-143.84;44.06
6032;BME280;3044;43.232;27.972;2023-07-20T12:16:10;44923.41;;;-143.84;42.61
6032;BME280;3044;43.232;27.972;2023-07-20T12:18:40;44932.91;;;-143.84;42.79
6032;BME280;3044;43.232;27.972;2023-07-20T12:21:07;44927.19;;;-143.84;41.72
6032;BME280;3044;43.232;27.972;2023-07-20T12:23:36;44910.06;;;-143.84;42.92
6032;BME280;3044;43.232;27.972;2023-07-20T12:26:06;44931.00;;;-143.84;44.00
6032;BME280;3044;43.232;27.972;2023-07-20T12:28:38;44919.59;;;-143.84;43.83
6032;BME280;3044;43.232;27.972;2023-07-20T12:31:05;44940.53;;;-143.84;44.98
6032;BME280;3044;43.232;27.972;2023-07-20T12:33:32;44931.00;;;-143.84;48.83
6032;BME280;3044;43.232;27.972;2023-07-20T12:36:01;44925.31;;;-143.84;48.00
6032;BME280;3044;43.232;27.972;2023-07-20T12:38:28;44942.44;;;-143.84;47.49
6032;BME280;3044;43.232;27.972;2023-07-20T12:40:56;44965.28;;;-143.84;49.09
6032;BME280;3044;43.232;27.972;2023-07-20T12:43:24;44959.56;;;-143.84;50.11
6032;BME280;3044;43.232;27.972;2023-07-20T12:45:51;44931.00;;;-143.84;49.81
6032;BME280;3044;43.232;27.972;2023-07-20T12:48:19;44953.88;;;-143.84;46.89
6032;BME280;3044;43.232;27.972;2023-07-20T12:50:46;44950.06;;;-143.84;46.96
6032;BME280;3044;43.232;27.972;2023-07-20T12:53:14;44944.34;;;-143.84;44.41
6032;BME280;3044;43.232;27.972;2023-07-20T12:55:42;44948.16;;;-143.84;47.54
6032;BME280;3044;43.232;27.972;2023-07-20T12:58:11;44959.56;;;-143.84;46.74
6032;BME280;3044;43.232;27.972;2023-07-20T13:00:39;44931.00;;;-143.84;50.38
6032;BME280;3044;43.232;27.972;2023-07-20T13:03:06;44944.34;;;-143.84;50.14
6032;BME280;3044;43.232;27.972;2023-07-20T13:05:34;44944.34;;;-143.84;49.58